createdAt,value
2023-04-18T00:00:50.634Z,511.00
2023-04-18T00:01:50.686Z,513.00
2023-04-18T00:02:50.783Z,507.00
2023-04-18T00:03:51.030Z,508.00
2023-04-18T00:04:50.816Z,509.00
2023-04-18T00:05:50.686Z,510.00
2023-04-18T00:06:50.724Z,514.00
2023-04-18T00:07:50.709Z,516.00
2023-04-18T00:08:50.707Z,504.00
2023-04-18T00:09:50.728Z,510.00
2023-04-18T00:10:50.726Z,518.00
2023-04-18T00:11:50.745Z,513.00
2023-04-18T00:12:50.734Z,506.00
2023-04-18T00:13:50.755Z,512.00
2023-04-18T00:14:50.751Z,514.00
2023-04-18T00:15:50.763Z,503.00
2023-04-18T00:16:50.813Z,509.00
2023-04-18T00:17:50.789Z,512.00
2023-04-18T00:18:50.789Z,518.00
2023-04-18T00:19:50.804Z,516.00
2023-04-18T00:20:50.790Z,517.00
2023-04-18T00:21:50.798Z,516.00
2023-04-18T00:22:50.821Z,506.00
2023-04-18T00:23:50.820Z,515.00
2023-04-18T00:24:50.815Z,512.00
2023-04-18T00:25:50.840Z,507.00
2023-04-18T00:26:50.821Z,528.00
2023-04-18T00:27:50.817Z,510.00
2023-04-18T00:28:50.826Z,508.00
2023-04-18T00:29:50.830Z,511.00
2023-04-18T00:30:50.913Z,516.00
2023-04-18T00:31:50.833Z,514.00
2023-04-18T00:32:50.929Z,505.00
2023-04-18T00:33:50.841Z,525.00
2023-04-18T00:34:50.848Z,522.00
2023-04-18T00:35:50.852Z,508.00
2023-04-18T00:36:50.850Z,509.00
2023-04-18T00:37:50.873Z,516.00
2023-04-18T00:38:50.861Z,504.00
2023-04-18T00:39:50.882Z,503.00
2023-04-18T00:40:50.860Z,508.00
2023-04-18T00:41:51.515Z,504.00
2023-04-18T00:42:50.893Z,512.00
2023-04-18T00:43:50.865Z,509.00
2023-04-18T00:44:50.878Z,513.00
2023-04-18T00:45:50.896Z,515.00
2023-04-18T00:46:50.863Z,510.00
2023-04-18T00:47:50.927Z,508.00
2023-04-18T00:48:50.874Z,509.00
2023-04-18T00:49:50.897Z,509.00
2023-04-18T00:50:50.882Z,516.00
2023-04-18T00:51:50.895Z,517.00
2023-04-18T00:52:50.880Z,512.00
2023-04-18T00:53:50.895Z,517.00
2023-04-18T00:54:50.919Z,516.00
2023-04-18T00:55:50.886Z,516.00
2023-04-18T00:56:50.884Z,513.00
2023-04-18T00:57:50.902Z,502.00
2023-04-18T00:58:50.915Z,511.00
2023-04-18T00:59:50.910Z,522.00
2023-04-18T01:00:50.912Z,512.00
2023-04-18T01:01:50.961Z,514.00
2023-04-18T01:02:51.045Z,510.00
2023-04-18T01:03:50.962Z,500.00
2023-04-18T01:04:50.938Z,511.00
2023-04-18T01:05:50.949Z,517.00
2023-04-18T01:06:50.983Z,516.00
2023-04-18T01:07:50.974Z,507.00
2023-04-18T01:08:50.984Z,517.00
2023-04-18T01:09:50.980Z,502.00
2023-04-18T01:10:51.006Z,521.00
2023-04-18T01:11:51.000Z,511.00
2023-04-18T01:12:51.004Z,507.00
2023-04-18T01:13:51.037Z,505.00
2023-04-18T01:14:51.046Z,509.00
2023-04-18T01:15:51.171Z,518.00
2023-04-18T01:16:51.038Z,509.00
2023-04-18T01:17:51.080Z,521.00
2023-04-18T01:18:51.045Z,513.00
2023-04-18T01:19:51.094Z,514.00
2023-04-18T01:20:51.078Z,511.00
2023-04-18T01:21:51.085Z,519.00
2023-04-18T01:22:51.090Z,520.00
2023-04-18T01:23:51.118Z,508.00
2023-04-18T01:24:51.115Z,523.00
2023-04-18T01:25:51.127Z,512.00
2023-04-18T01:26:51.144Z,517.00
2023-04-18T01:27:51.144Z,514.00
2023-04-18T01:28:51.146Z,509.00
2023-04-18T01:29:51.161Z,507.00
2023-04-18T01:30:51.189Z,507.00
2023-04-18T01:31:51.178Z,523.00
2023-04-18T01:32:51.264Z,511.00
2023-04-18T01:33:51.202Z,515.00
2023-04-18T01:34:51.202Z,511.00
2023-04-18T01:35:51.240Z,516.00
2023-04-18T01:36:51.226Z,509.00
2023-04-18T01:37:51.241Z,522.00
2023-04-18T01:38:51.262Z,520.00
2023-04-18T01:39:51.270Z,514.00
2023-04-18T01:40:51.275Z,513.00
2023-04-18T01:41:51.283Z,506.00
2023-04-18T01:42:51.284Z,511.00
2023-04-18T01:43:51.291Z,531.00
2023-04-18T01:44:51.295Z,520.00
2023-04-18T01:45:51.312Z,510.00
2023-04-18T01:46:51.374Z,507.00
2023-04-18T01:47:51.328Z,504.00
2023-04-18T01:48:51.316Z,513.00
2023-04-18T01:49:51.330Z,510.00
2023-04-18T01:50:51.357Z,519.00
2023-04-18T01:51:51.339Z,512.00
2023-04-18T01:52:51.347Z,507.00
2023-04-18T01:53:51.368Z,521.00
2023-04-18T01:54:51.378Z,515.00
2023-04-18T01:55:51.397Z,503.00
2023-04-18T01:56:51.392Z,514.00
2023-04-18T01:57:51.388Z,514.00
2023-04-18T01:58:51.401Z,516.00
2023-04-18T01:59:51.393Z,514.00
2023-04-18T02:00:51.416Z,511.00
2023-04-18T02:01:51.369Z,505.00
2023-04-18T02:02:51.504Z,521.00
2023-04-18T02:03:51.487Z,520.00
2023-04-18T02:04:51.377Z,522.00
2023-04-18T02:05:51.406Z,518.00
2023-04-18T02:06:51.380Z,516.00
2023-04-18T02:07:51.391Z,506.00
2023-04-18T02:08:51.416Z,522.00
2023-04-18T02:09:51.407Z,509.00
2023-04-18T02:10:51.434Z,518.00
2023-04-18T02:11:51.398Z,500.00
2023-04-18T02:12:51.439Z,511.00
2023-04-18T02:13:51.401Z,523.00
2023-04-18T02:14:51.490Z,513.00
2023-04-18T02:15:51.412Z,511.00
2023-04-18T02:16:51.532Z,509.00
2023-04-18T02:17:51.448Z,519.00
2023-04-18T02:18:51.416Z,517.00
2023-04-18T02:19:51.431Z,517.00
2023-04-18T02:20:51.432Z,509.00
2023-04-18T02:21:51.459Z,521.00
2023-04-18T02:22:51.439Z,510.00
2023-04-18T02:23:51.457Z,524.00
2023-04-18T02:24:51.447Z,515.00
2023-04-18T02:25:51.462Z,514.00
2023-04-18T02:26:51.458Z,514.00
2023-04-18T02:27:51.490Z,520.00
2023-04-18T02:28:51.475Z,508.00
2023-04-18T02:29:51.450Z,512.00
2023-04-18T02:30:51.458Z,503.00
2023-04-18T02:31:51.514Z,518.00
2023-04-18T02:32:51.562Z,513.00
2023-04-18T02:33:51.461Z,515.00
2023-04-18T02:34:51.450Z,512.00
2023-04-18T02:35:51.453Z,512.00
2023-04-18T02:36:51.463Z,514.00
2023-04-18T02:37:51.471Z,505.00
2023-04-18T02:38:51.459Z,509.00
2023-04-18T02:39:51.454Z,515.00
2023-04-18T02:40:51.499Z,512.00
2023-04-18T02:41:51.467Z,514.00
2023-04-18T02:42:51.463Z,515.00
2023-04-18T02:43:51.467Z,512.00
2023-04-18T02:44:51.476Z,467.00
2023-04-18T02:45:51.529Z,502.00
2023-04-18T02:46:51.484Z,504.00
2023-04-18T02:47:55.992Z,500.00
2023-04-18T02:48:51.454Z,499.00
2023-04-18T02:49:51.464Z,466.00
2023-04-18T02:50:51.453Z,455.00
2023-04-18T02:51:51.448Z,422.00
2023-04-18T02:52:51.468Z,400.00
2023-04-18T02:53:51.439Z,444.00
2023-04-18T02:54:51.449Z,483.00
2023-04-18T02:55:51.444Z,509.00
2023-04-18T02:56:51.457Z,511.00
2023-04-18T02:57:51.463Z,507.00
2023-04-18T02:58:51.460Z,494.00
2023-04-18T02:59:51.471Z,509.00
2023-04-18T03:00:51.473Z,509.00
2023-04-18T03:01:51.479Z,510.00
2023-04-18T03:02:51.532Z,500.00
2023-04-18T03:03:51.463Z,503.00
2023-04-18T03:04:51.493Z,497.00
2023-04-18T03:05:51.461Z,512.00
2023-04-18T03:06:51.478Z,508.00
2023-04-18T03:07:51.487Z,503.00
2023-04-18T03:08:51.460Z,499.00
2023-04-18T03:09:51.466Z,506.00
2023-04-18T03:10:51.466Z,506.00
2023-04-18T03:11:51.529Z,500.00
2023-04-18T03:12:51.539Z,509.00
2023-04-18T03:13:51.596Z,499.00
2023-04-18T03:14:51.683Z,505.00
2023-04-18T03:15:51.736Z,504.00
2023-04-18T03:16:53.865Z,500.00
2023-04-18T03:17:51.749Z,500.00
2023-04-18T03:18:51.737Z,502.00
2023-04-18T03:19:51.762Z,501.00
2023-04-18T03:20:51.751Z,501.00
2023-04-18T03:21:51.770Z,504.00
2023-04-18T03:22:51.760Z,501.00
2023-04-18T03:23:51.761Z,501.00
2023-04-18T03:24:51.761Z,500.00
2023-04-18T03:25:51.765Z,503.00
2023-04-18T03:26:51.783Z,505.00
2023-04-18T03:27:51.755Z,505.00
2023-04-18T03:28:51.779Z,500.00
2023-04-18T03:29:51.786Z,505.00
2023-04-18T03:30:51.907Z,504.00
2023-04-18T03:31:51.798Z,501.00
2023-04-18T03:32:51.861Z,502.00
2023-04-18T03:33:51.834Z,500.00
2023-04-18T03:34:51.817Z,503.00
2023-04-18T03:35:51.835Z,500.00
2023-04-18T03:36:51.866Z,502.00
2023-04-18T03:37:51.852Z,500.00
2023-04-18T03:38:51.853Z,500.00
2023-04-18T03:39:51.853Z,501.00
2023-04-18T03:40:51.849Z,498.00
2023-04-18T03:41:51.848Z,492.00
2023-04-18T03:42:51.852Z,493.00
2023-04-18T03:43:51.871Z,502.00
2023-04-18T03:44:51.861Z,503.00
2023-04-18T03:45:51.885Z,503.00
2023-04-18T03:46:51.881Z,503.00
2023-04-18T03:47:51.911Z,501.00
2023-04-18T03:48:51.891Z,507.00
2023-04-18T03:49:51.890Z,501.00
2023-04-18T03:50:51.898Z,503.00
2023-04-18T03:51:51.915Z,503.00
2023-04-18T03:52:51.916Z,503.00
2023-04-18T03:53:51.937Z,501.00
2023-04-18T03:54:51.964Z,505.00
2023-04-18T03:55:51.955Z,505.00
2023-04-18T03:56:51.976Z,506.00
2023-04-18T03:57:51.961Z,506.00
2023-04-18T03:58:51.985Z,500.00
2023-04-18T03:59:52.007Z,502.00
2023-04-18T04:00:51.988Z,500.00
2023-04-18T04:01:52.055Z,502.00
2023-04-18T04:02:52.173Z,502.00
2023-04-18T04:03:52.220Z,500.00
2023-04-18T04:04:52.180Z,506.00
2023-04-18T04:05:52.185Z,506.00
2023-04-18T04:06:52.236Z,503.00
2023-04-18T04:07:52.269Z,502.00
2023-04-18T04:08:52.293Z,505.00
2023-04-18T04:09:52.350Z,502.00
2023-04-18T04:10:52.408Z,500.00
2023-04-18T04:11:52.450Z,500.00
2023-04-18T04:12:52.491Z,507.00
2023-04-18T04:13:52.529Z,507.00
2023-04-18T04:14:52.581Z,510.00
2023-04-18T04:15:52.621Z,505.00
2023-04-18T04:16:52.894Z,512.00
2023-04-18T04:17:52.780Z,510.00
2023-04-18T04:18:52.783Z,511.00
2023-04-18T04:19:52.820Z,513.00
2023-04-18T04:20:52.875Z,517.00
2023-04-18T04:21:52.952Z,515.00
2023-04-18T04:22:53.043Z,517.00
2023-04-18T04:23:53.024Z,518.00
2023-04-18T04:24:53.094Z,512.00
2023-04-18T04:25:53.138Z,519.00
2023-04-18T04:26:53.197Z,524.00
2023-04-18T04:27:53.250Z,512.00
2023-04-18T04:28:53.293Z,525.00
2023-04-18T04:29:53.343Z,517.00
2023-04-18T04:30:53.403Z,518.00
2023-04-18T04:31:53.489Z,518.00
2023-04-18T04:32:53.585Z,518.00
2023-04-18T04:33:53.569Z,522.00
2023-04-18T04:34:53.624Z,527.00
2023-04-18T04:35:53.656Z,537.00
2023-04-18T04:36:53.723Z,532.00
2023-04-18T04:37:53.819Z,538.00
2023-04-18T04:38:53.832Z,533.00
2023-04-18T04:39:53.889Z,533.00
2023-04-18T04:40:53.950Z,538.00
2023-04-18T04:41:53.990Z,541.00
2023-04-18T04:42:54.097Z,543.00
2023-04-18T04:43:54.093Z,551.00
2023-04-18T04:44:54.157Z,548.00
2023-04-18T04:45:54.204Z,550.00
2023-04-18T04:46:54.142Z,557.00
2023-04-18T04:47:54.175Z,558.00
2023-04-18T04:48:54.167Z,559.00
2023-04-18T04:49:54.179Z,560.00
2023-04-18T04:50:54.195Z,565.00
2023-04-18T04:51:54.206Z,571.00
2023-04-18T04:52:54.207Z,568.00
2023-04-18T04:53:54.228Z,565.00
2023-04-18T04:54:54.289Z,566.00
2023-04-18T04:55:54.237Z,566.00
2023-04-18T04:56:54.251Z,566.00
2023-04-18T04:57:54.257Z,566.00
2023-04-18T04:58:54.280Z,567.00
2023-04-18T04:59:54.280Z,571.00
2023-04-18T05:00:54.357Z,561.00
2023-04-18T05:01:54.327Z,562.00
2023-04-18T05:02:54.472Z,562.00
2023-04-18T05:03:54.359Z,563.00
2023-04-18T05:04:54.330Z,557.00
2023-04-18T05:05:54.324Z,557.00
2023-04-18T05:06:54.348Z,558.00
2023-04-18T05:07:54.368Z,557.00
2023-04-18T05:08:54.360Z,555.00
2023-04-18T05:09:54.368Z,553.00
2023-04-18T05:10:54.375Z,552.00
2023-04-18T05:11:54.395Z,551.00
2023-04-18T05:12:54.411Z,552.00
2023-04-18T05:13:54.413Z,554.00
2023-04-18T05:14:54.423Z,559.00
2023-04-18T05:15:54.444Z,556.00
2023-04-18T05:16:54.468Z,554.00
2023-04-18T05:17:54.504Z,557.00
2023-04-18T05:18:54.459Z,559.00
2023-04-18T05:19:54.458Z,553.00
2023-04-18T05:20:54.457Z,554.00
2023-04-18T05:21:54.479Z,542.00
2023-04-18T05:22:54.469Z,534.00
2023-04-18T05:23:54.494Z,533.00
2023-04-18T05:24:54.497Z,532.00
2023-04-18T05:25:54.510Z,528.00
2023-04-18T05:26:54.526Z,522.00
2023-04-18T05:27:54.556Z,509.00
2023-04-18T05:28:54.524Z,502.00
2023-04-18T05:29:54.553Z,510.00
2023-04-18T05:30:54.567Z,525.00
2023-04-18T05:31:54.575Z,558.00
2023-04-18T05:32:54.612Z,601.00
2023-04-18T05:33:54.584Z,633.00
2023-04-18T05:34:54.602Z,664.00
2023-04-18T05:35:54.614Z,746.00
2023-04-18T05:36:54.605Z,749.00
2023-04-18T05:37:54.627Z,757.00
2023-04-18T05:38:54.663Z,699.00
2023-04-18T05:39:54.651Z,620.00
2023-04-18T05:40:54.636Z,603.00
2023-04-18T05:41:54.644Z,595.00
2023-04-18T05:42:54.662Z,578.00
2023-04-18T05:44:04.951Z,638.00
2023-04-18T05:44:55.679Z,640.00
2023-04-18T05:45:56.529Z,652.00
2023-04-18T05:46:54.702Z,694.00
2023-04-18T05:47:54.825Z,825.00
2023-04-18T05:48:54.720Z,1048.00
2023-04-18T05:49:54.744Z,1092.00
2023-04-18T05:50:54.732Z,1178.00
2023-04-18T05:51:54.744Z,1259.00
2023-04-18T05:52:54.751Z,1271.00
2023-04-18T05:53:54.743Z,1324.00
2023-04-18T05:54:54.742Z,1794.00
2023-04-18T05:55:54.806Z,2053.00
2023-04-18T05:56:54.773Z,2894.00
2023-04-18T05:57:54.778Z,3964.00
2023-04-18T05:58:54.754Z,3592.00
2023-04-18T05:59:54.769Z,2642.00
2023-04-18T06:00:54.764Z,2225.00
2023-04-18T06:01:54.862Z,2001.00
2023-04-18T06:02:54.874Z,1874.00
2023-04-18T06:03:55.001Z,1812.00
2023-04-18T06:04:54.924Z,1801.00
2023-04-18T06:05:54.884Z,1811.00
2023-04-18T06:06:54.785Z,1803.00
2023-04-18T06:07:54.774Z,1840.00
2023-04-18T06:08:54.785Z,1840.00
2023-04-18T06:09:54.777Z,1840.00
2023-04-18T06:10:54.763Z,1845.00
2023-04-18T06:11:54.825Z,1849.00
2023-04-18T06:12:54.770Z,1907.00
2023-04-18T06:13:54.776Z,1910.00
2023-04-18T06:14:54.760Z,1875.00
2023-04-18T06:15:54.811Z,1877.00
2023-04-18T06:16:54.770Z,1886.00
2023-04-18T06:17:54.855Z,1905.00
2023-04-18T06:18:54.773Z,1879.00
2023-04-18T06:19:54.889Z,1890.00
2023-04-18T06:20:54.766Z,1911.00
2023-04-18T06:21:54.776Z,1949.00
2023-04-18T06:22:54.776Z,2001.00
2023-04-18T06:23:54.790Z,2016.00
2023-04-18T06:24:54.757Z,2020.00
2023-04-18T06:25:54.749Z,1963.00
2023-04-18T06:26:54.765Z,1721.00
2023-04-18T06:27:54.755Z,1685.00
2023-04-18T06:28:54.764Z,1636.00
2023-04-18T06:29:54.756Z,1380.00
2023-04-18T06:30:54.734Z,1332.00
2023-04-18T06:31:54.786Z,1253.00
2023-04-18T06:32:54.764Z,1386.00
2023-04-18T06:33:54.821Z,1310.00
2023-04-18T06:34:54.739Z,1267.00
2023-04-18T06:35:54.723Z,1184.00
2023-04-18T06:36:54.736Z,1163.00
2023-04-18T06:37:54.735Z,1183.00
2023-04-18T06:38:54.732Z,1132.00
2023-04-18T06:39:54.732Z,1082.00
2023-04-18T06:40:54.756Z,1117.00
2023-04-18T06:41:54.733Z,1080.00
2023-04-18T06:42:54.735Z,1078.00
2023-04-18T06:44:03.482Z,1135.00
2023-04-18T06:44:55.740Z,1137.00
2023-04-18T06:45:54.811Z,1139.00
2023-04-18T06:46:54.746Z,1115.00
2023-04-18T06:47:54.821Z,1062.00
2023-04-18T06:48:54.771Z,973.00
2023-04-18T06:49:54.791Z,849.00
2023-04-18T06:50:54.790Z,812.00
2023-04-18T06:51:54.765Z,858.00
2023-04-18T06:52:54.762Z,792.00
2023-04-18T06:53:54.820Z,782.00
2023-04-18T06:54:54.780Z,723.00
2023-04-18T06:55:54.778Z,665.00
2023-04-18T06:56:54.780Z,618.00
2023-04-18T06:57:54.797Z,590.00
2023-04-18T06:58:54.826Z,570.00
2023-04-18T06:59:54.877Z,572.00
2023-04-18T07:00:54.952Z,552.00
2023-04-18T07:01:55.011Z,548.00
2023-04-18T07:02:55.211Z,521.00
2023-04-18T07:03:55.269Z,499.00
2023-04-18T07:04:55.166Z,500.00
2023-04-18T07:05:55.258Z,530.00
2023-04-18T07:06:55.295Z,501.00
2023-04-18T07:07:55.346Z,500.00
2023-04-18T07:08:55.442Z,500.00
2023-04-18T07:09:55.442Z,560.00
2023-04-18T07:10:55.496Z,545.00
2023-04-18T07:11:55.601Z,565.00
2023-04-18T07:12:55.674Z,611.00
2023-04-18T07:13:55.829Z,651.00
2023-04-18T07:14:55.836Z,649.00
2023-04-18T07:15:55.864Z,642.00
2023-04-18T07:16:55.974Z,678.00
2023-04-18T07:17:55.966Z,684.00
2023-04-18T07:18:55.972Z,707.00
2023-04-18T07:19:55.960Z,685.00
2023-04-18T07:20:55.994Z,711.00
2023-04-18T07:21:56.081Z,721.00
2023-04-18T07:22:55.975Z,767.00
2023-04-18T07:23:56.675Z,890.00
2023-04-18T07:24:56.060Z,934.00
2023-04-18T07:25:55.991Z,969.00
2023-04-18T07:26:55.987Z,968.00
2023-04-18T07:27:55.995Z,1029.00
2023-04-18T07:28:56.002Z,994.00
2023-04-18T07:29:56.021Z,1030.00
2023-04-18T07:30:56.008Z,1020.00
2023-04-18T07:31:55.997Z,1030.00
2023-04-18T07:32:56.037Z,1015.00
2023-04-18T07:33:56.006Z,1001.00
2023-04-18T07:34:56.006Z,1048.00
2023-04-18T07:35:55.992Z,894.00
2023-04-18T07:36:56.025Z,886.00
2023-04-18T07:37:56.026Z,888.00
2023-04-18T07:38:56.160Z,895.00
2023-04-18T07:39:56.084Z,918.00
2023-04-18T07:40:56.060Z,964.00
2023-04-18T07:41:56.041Z,1062.00
2023-04-18T07:42:56.041Z,1088.00
2023-04-18T07:43:56.020Z,1114.00
2023-04-18T07:44:55.989Z,1227.00
2023-04-18T07:45:56.026Z,1230.00
2023-04-18T07:46:55.990Z,1232.00
2023-04-18T07:47:56.063Z,1252.00
2023-04-18T07:48:55.976Z,1288.00
2023-04-18T07:49:55.988Z,1376.00
2023-04-18T07:50:55.972Z,1495.00
2023-04-18T07:51:55.963Z,1554.00
2023-04-18T07:52:55.988Z,1582.00
2023-04-18T07:53:55.977Z,1582.00
2023-04-18T07:54:55.937Z,1579.00
2023-04-18T07:55:55.983Z,1592.00
2023-04-18T07:56:55.928Z,1627.00
2023-04-18T07:57:55.919Z,1665.00
2023-04-18T07:58:55.923Z,1670.00
2023-04-18T07:59:55.917Z,1675.00
2023-04-18T08:00:55.976Z,1666.00
2023-04-18T08:01:56.096Z,1717.00
2023-04-18T08:02:56.285Z,1719.00
2023-04-18T08:03:56.301Z,1714.00
2023-04-18T08:04:56.501Z,1735.00
2023-04-18T08:05:56.311Z,1754.00
2023-04-18T08:06:56.368Z,1736.00
2023-04-18T08:07:56.428Z,1745.00
2023-04-18T08:08:56.534Z,1747.00
2023-04-18T08:09:56.618Z,1750.00
2023-04-18T08:10:56.634Z,1610.00
2023-04-18T08:11:56.825Z,1336.00
2023-04-18T08:12:56.731Z,1266.00
2023-04-18T08:13:56.802Z,1167.00
2023-04-18T08:14:56.874Z,1080.00
2023-04-18T08:15:56.955Z,1022.00
2023-04-18T08:16:56.962Z,918.00
2023-04-18T08:17:57.052Z,852.00
2023-04-18T08:18:57.126Z,744.00
2023-04-18T08:19:57.105Z,684.00
2023-04-18T08:20:57.069Z,628.00
2023-04-18T08:21:57.075Z,610.00
2023-04-18T08:23:07.514Z,582.00
2023-04-18T08:23:58.052Z,565.00
2023-04-18T08:25:04.445Z,547.00
2023-04-18T08:25:58.042Z,530.00
2023-04-18T08:26:57.028Z,510.00
2023-04-18T08:27:57.091Z,502.00
2023-04-18T08:28:57.028Z,498.00
2023-04-18T08:29:57.024Z,477.00
2023-04-18T08:30:57.041Z,452.00
2023-04-18T08:31:57.056Z,470.00
2023-04-18T08:32:57.044Z,496.00
2023-04-18T08:33:57.057Z,564.00
2023-04-18T08:34:57.034Z,590.00
2023-04-18T08:35:57.021Z,604.00
2023-04-18T08:36:57.045Z,678.00
2023-04-18T08:37:57.013Z,809.00
2023-04-18T08:38:57.037Z,920.00
2023-04-18T08:39:57.044Z,1020.00
2023-04-18T08:40:57.038Z,1082.00
2023-04-18T08:41:57.030Z,1195.00
2023-04-18T08:42:57.041Z,1268.00
2023-04-18T08:43:57.318Z,1320.00
2023-04-18T08:44:57.022Z,1359.00
2023-04-18T08:45:57.088Z,1360.00
2023-04-18T08:46:57.045Z,1391.00
2023-04-18T08:47:57.124Z,1433.00
2023-04-18T08:48:57.160Z,1385.00
2023-04-18T08:49:57.283Z,1310.00
2023-04-18T08:50:57.277Z,1275.00
2023-04-18T08:51:57.324Z,1321.00
2023-04-18T08:52:57.381Z,1394.00
2023-04-18T08:53:57.445Z,1439.00
2023-04-18T08:54:57.451Z,1441.00
2023-04-18T08:55:57.493Z,1447.00
2023-04-18T08:56:57.505Z,1463.00
2023-04-18T08:57:57.411Z,1487.00
2023-04-18T08:58:57.431Z,1540.00
2023-04-18T08:59:57.431Z,1564.00
2023-04-18T09:00:57.453Z,1558.00
2023-04-18T09:01:57.500Z,1559.00
2023-04-18T09:02:57.759Z,1563.00
2023-04-18T09:03:57.442Z,1573.00
2023-04-18T09:04:57.410Z,1602.00
2023-04-18T09:05:57.371Z,1619.00
2023-04-18T09:06:57.374Z,1607.00
2023-04-18T09:07:57.396Z,1639.00
2023-04-18T09:08:57.392Z,1645.00
2023-04-18T09:09:57.402Z,1655.00
2023-04-18T09:10:57.398Z,1632.00
2023-04-18T09:11:57.408Z,1623.00
2023-04-18T09:12:57.525Z,1615.00
2023-04-18T09:13:57.472Z,1617.00
2023-04-18T09:14:57.490Z,1622.00
2023-04-18T09:15:57.749Z,1629.00
2023-04-18T09:16:57.533Z,1650.00
2023-04-18T09:17:57.500Z,1637.00
2023-04-18T09:18:57.466Z,1642.00
2023-04-18T09:19:57.482Z,1621.00
2023-04-18T09:20:57.471Z,1639.00
2023-04-18T09:21:57.469Z,1660.00
2023-04-18T09:22:57.463Z,1637.00
2023-04-18T09:23:57.444Z,1649.00
2023-04-18T09:24:57.440Z,1645.00
2023-04-18T09:25:57.499Z,1652.00
2023-04-18T09:26:57.561Z,1637.00
2023-04-18T09:27:57.631Z,1609.00
2023-04-18T09:28:57.626Z,1598.00
2023-04-18T09:29:58.156Z,1604.00
2023-04-18T09:30:57.801Z,1623.00
2023-04-18T09:31:57.823Z,1653.00
2023-04-18T09:32:57.881Z,1664.00
2023-04-18T09:33:57.867Z,1668.00
2023-04-18T09:34:58.020Z,1660.00
2023-04-18T09:35:57.981Z,1643.00
2023-04-18T09:36:58.052Z,1659.00
2023-04-18T09:37:58.148Z,1671.00
2023-04-18T09:38:58.113Z,1668.00
2023-04-18T09:39:58.184Z,1660.00
2023-04-18T09:40:58.155Z,1661.00
2023-04-18T09:41:58.183Z,1661.00
2023-04-18T09:42:58.163Z,1648.00
2023-04-18T09:43:58.157Z,1497.00
2023-04-18T09:44:58.141Z,1391.00
2023-04-18T09:45:58.158Z,1052.00
2023-04-18T09:46:58.148Z,790.00
2023-04-18T09:47:58.238Z,679.00
2023-04-18T09:48:58.115Z,659.00
2023-04-18T09:49:58.114Z,560.00
2023-04-18T09:50:58.141Z,496.00
2023-04-18T09:51:58.137Z,414.00
2023-04-18T09:52:58.106Z,400.00
2023-04-18T09:53:58.135Z,417.00
2023-04-18T09:54:58.094Z,481.00
2023-04-18T09:55:58.113Z,555.00
2023-04-18T09:56:58.107Z,493.00
2023-04-18T09:57:58.146Z,469.00
2023-04-18T09:58:58.220Z,500.00
2023-04-18T09:59:58.289Z,488.00
2023-04-18T10:00:58.382Z,500.00
2023-04-18T10:01:58.561Z,488.00
2023-04-18T10:02:58.593Z,500.00
2023-04-18T10:03:58.676Z,547.00
2023-04-18T10:04:58.701Z,515.00
2023-04-18T10:05:58.638Z,513.00
2023-04-18T10:06:58.707Z,515.00
2023-04-18T10:07:58.760Z,506.00
2023-04-18T10:08:58.824Z,538.00
2023-04-18T10:09:58.859Z,523.00
2023-04-18T10:10:59.025Z,527.00
2023-04-18T10:11:59.006Z,562.00
2023-04-18T10:12:59.050Z,507.00
2023-04-18T10:13:59.178Z,556.00
2023-04-18T10:14:59.149Z,564.00
2023-04-18T10:15:59.207Z,521.00
2023-04-18T10:16:59.224Z,508.00
2023-04-18T10:18:05.345Z,509.00
2023-04-18T10:19:00.294Z,510.00
2023-04-18T10:19:59.377Z,516.00
2023-04-18T10:20:59.309Z,518.00
2023-04-18T10:21:59.311Z,535.00
2023-04-18T10:22:59.294Z,522.00
2023-04-18T10:23:59.296Z,532.00
2023-04-18T10:24:59.322Z,517.00
2023-04-18T10:25:59.329Z,518.00
2023-04-18T10:26:59.349Z,554.00
2023-04-18T10:27:59.431Z,592.00
2023-04-18T10:28:59.539Z,596.00
2023-04-18T10:29:59.573Z,598.00
2023-04-18T10:30:59.706Z,661.00
2023-04-18T10:31:59.837Z,628.00
2023-04-18T10:32:59.872Z,592.00
2023-04-18T10:34:05.310Z,554.00
2023-04-18T10:35:00.864Z,554.00
2023-04-18T10:35:59.862Z,558.00
2023-04-18T10:36:59.853Z,561.00
2023-04-18T10:37:59.847Z,455.00
2023-04-18T10:38:59.857Z,400.00
2023-04-18T10:39:59.849Z,400.00
2023-04-18T10:40:59.858Z,445.00
2023-04-18T10:41:59.873Z,511.00
2023-04-18T10:42:59.874Z,500.00
2023-04-18T10:43:59.877Z,510.00
2023-04-18T10:44:59.868Z,525.00
2023-04-18T10:45:59.852Z,557.00
2023-04-18T10:46:59.909Z,561.00
2023-04-18T10:47:59.891Z,564.00
2023-04-18T10:48:59.940Z,595.00
2023-04-18T10:50:00.040Z,610.00
2023-04-18T10:51:00.176Z,612.00
2023-04-18T10:52:00.169Z,604.00
2023-04-18T10:53:00.249Z,601.00
2023-04-18T10:54:00.325Z,577.00
2023-04-18T10:55:00.375Z,573.00
2023-04-18T10:56:00.455Z,571.00
2023-04-18T10:57:00.500Z,599.00
2023-04-18T10:58:00.579Z,627.00
2023-04-18T10:59:00.668Z,672.00
2023-04-18T11:00:00.713Z,830.00
2023-04-18T11:01:00.846Z,970.00
2023-04-18T11:02:00.875Z,945.00
2023-04-18T11:03:00.997Z,909.00
2023-04-18T11:04:11.005Z,935.00
2023-04-18T11:05:01.977Z,921.00
2023-04-18T11:06:00.973Z,944.00
2023-04-18T11:07:00.970Z,982.00
2023-04-18T11:08:01.056Z,966.00
2023-04-18T11:09:00.977Z,954.00
2023-04-18T11:10:00.984Z,1136.00
2023-04-18T11:11:00.974Z,1224.00
2023-04-18T11:12:00.982Z,1194.00
2023-04-18T11:13:00.965Z,1065.00
2023-04-18T11:14:01.005Z,1021.00
2023-04-18T11:15:01.078Z,1019.00
2023-04-18T11:16:01.174Z,938.00
2023-04-18T11:17:01.190Z,742.00
2023-04-18T11:18:01.231Z,602.00
2023-04-18T11:19:01.246Z,580.00
2023-04-18T11:20:01.258Z,570.00
2023-04-18T11:21:01.321Z,515.00
2023-04-18T11:22:01.319Z,469.00
2023-04-18T11:23:01.320Z,472.00
2023-04-18T11:24:01.443Z,513.00
2023-04-18T11:25:01.304Z,516.00
2023-04-18T11:26:01.342Z,502.00
2023-04-18T11:27:01.297Z,486.00
2023-04-18T11:28:01.312Z,490.00
2023-04-18T11:29:01.316Z,597.00
2023-04-18T11:30:01.380Z,753.00
2023-04-18T11:31:01.357Z,885.00
2023-04-18T11:32:01.404Z,1050.00
2023-04-18T11:33:01.383Z,1225.00
2023-04-18T11:34:01.387Z,1448.00
2023-04-18T11:35:01.443Z,1455.00
2023-04-18T11:36:01.433Z,1609.00
2023-04-18T11:37:01.508Z,1860.00
2023-04-18T11:38:01.508Z,1838.00
2023-04-18T11:39:01.530Z,1824.00
2023-04-18T11:40:01.624Z,1934.00
2023-04-18T11:41:01.560Z,2139.00
2023-04-18T11:42:01.561Z,2094.00
2023-04-18T11:43:01.555Z,2115.00
2023-04-18T11:44:01.569Z,2159.00
2023-04-18T11:45:01.598Z,2180.00
2023-04-18T11:46:01.831Z,2274.00
2023-04-18T11:47:01.666Z,2278.00
2023-04-18T11:48:01.656Z,2319.00
2023-04-18T11:49:01.609Z,2415.00
2023-04-18T11:50:01.600Z,2486.00
2023-04-18T11:51:01.601Z,2487.00
2023-04-18T11:52:01.589Z,2499.00
2023-04-18T11:53:01.574Z,2558.00
2023-04-18T11:54:01.550Z,2561.00
2023-04-18T11:55:01.530Z,2564.00
2023-04-18T11:56:01.542Z,2585.00
2023-04-18T11:57:01.510Z,2624.00
2023-04-18T11:58:01.478Z,2634.00
2023-04-18T11:59:01.524Z,2563.00
2023-04-18T12:00:01.458Z,2585.00
2023-04-18T12:01:01.476Z,2626.00
2023-04-18T12:02:12.609Z,2692.00
2023-04-18T12:03:02.644Z,2567.00
2023-04-18T12:04:01.587Z,2594.00
2023-04-18T12:05:01.717Z,2647.00
2023-04-18T12:06:01.599Z,2715.00
2023-04-18T12:07:01.406Z,2824.00
2023-04-18T12:08:01.400Z,2868.00
2023-04-18T12:09:01.363Z,2876.00
2023-04-18T12:10:01.352Z,2870.00
2023-04-18T12:11:01.368Z,2879.00
2023-04-18T12:12:01.357Z,2900.00
2023-04-18T12:13:01.372Z,2887.00
2023-04-18T12:14:03.488Z,2886.00
2023-04-18T12:15:01.659Z,2896.00
2023-04-18T12:16:01.747Z,2928.00
2023-04-18T12:17:01.769Z,2941.00
2023-04-18T12:18:01.955Z,2951.00
2023-04-18T12:19:01.902Z,2937.00
2023-04-18T12:20:01.975Z,2905.00
2023-04-18T12:21:02.068Z,2917.00
2023-04-18T12:22:02.112Z,2898.00